Porth, United Kingdom
Current Conditions -  °F | °C
As of 7:50 AM on Monday 24 Nov 2014 (Local Time) from EGDX Reporting Station
Clear Clear  
Wind Chill: 27°   Ceiling: Unl
Heat Index: 32°   Visibility: 6mi
Dew Point: 30°   Wind: 5mph
Humidity: 93%   Direction: 60°ENE
Pressure: 30.3"   Gusts: NA
Location:  51.62°N, 3.41°W
Report Text: EGDX 240750Z AUTO 06004KT 9999 NCD 00/M01 Q1026
Loading
Personal Weather Stations






























Interactive Weather Map New forecast layout! Learn more

10-Day Weather Forecast

Advertisements
Track Severe Weather on mobile